KALSKTEX

Guest
Details From KALS - San Luis Valley Rgnl Bergman Fld
To KTEX - Telluride Rgnl
Flight Number -
Tags Generated
Created
Modified
Stats Distance 102 nm / 190 km
Max Altitude 0 ft / 0 m
Waypoints 2
Social Downloads 0
Likes 0
Share VATSIM

Download

Looking for another format? Having issues loading an existing format? Contact us
Advertisement - Login to hide

Notes

Generated

Route

KALS KTEX

ID Type Via Altitude Latitude Longitude Leg Dist Tot Dist Heading (true) Name
O KALS APT - 0 ft / 0 m 37.43339˚ -105.86842˚ - 0 nm - SAN LUIS VALLEY RGNL BERGMAN FLD
O KTEX APT - 0 ft / 0 m 37.95618˚ -107.91999˚ 102 nm 102 nm 288° / 287° -

Altitude Profile

Advertisement - Login to hide

KALS

Details ICAO KALS (ALS)
Name SAN LUIS VALLEY RGNL BERGMAN FLD
Region United States
Timezone America/Denver (UTC-7.0)
Stats Elevation 7,539 ft / 2,298 m (AMSL)
Location 37.434794° -105.865505°
Runways 2
Magnetic Variation 8.439° E

METAR

KALS 140352Z AUTO 11007KT 10SM BKN100 M02/M13 A2997 RMK AO2 SLP170 T10171133

Decode

TAF

KALS 132333Z 1400/1424 VRB06KT P6SM SCT110 FM140300 VRB06KT P6SM BKN090 FM140800 14009KT P6SM VCSH BKN030 OVC060 FM141600 03006KT P6SM VCSH BKN020 OVC040 FM142000 01006KT P6SM SCT150

Decode

Departure Runways

ID Width Length Bearing (true) Bearing (mag) Surface Threshold Offset Overrun Length
02 100 ft / 30 m 8,527 ft / 2,599 m 31.39° 22.95° Asphalt 0 ft / 0 m 282 ft / 86 m
06 100 ft / 30 m 3,193 ft / 973 m 76.27° 67.83° Grass 0 ft / 0 m 0 ft / 0 m
20 100 ft / 30 m 8,527 ft / 2,599 m 211.40° 202.96° Asphalt 0 ft / 0 m 0 ft / 0 m
24 100 ft / 30 m 3,193 ft / 973 m 256.27° 247.83° Grass 0 ft / 0 m 0 ft / 0 m

KTEX

Details ICAO KTEX (TEX)
Name Telluride Rgnl
Region United States
Timezone America/Denver (UTC-7.0)
Stats Elevation 9,078 ft / 2,767 m (AMSL)
Location 37.953812° -107.908742°
Runways 1
Magnetic Variation 9.421° E

METAR

KTEX 140435Z AUTO 00000KT 10SM BKN065 OVC070 02/M17 A3009 RMK AO2 T00221166

Decode

TAF

KTEX 140101Z 1401/1424 27003KT P6SM SCT080 FM140300 23008KT P6SM BKN080 BKN130 FM140700 VRB03KT P6SM VCSH BKN060 BKN090 FM141700 02010KT P6SM VCSH FEW045 SCT150

Decode

Destination Runways

ID Width Length Bearing (true) Bearing (mag) Surface Threshold Offset Overrun Length
09 98 ft / 30 m 7,095 ft / 2,163 m 104.96° 95.54° Asphalt 200 ft / 61 m 400 ft / 122 m
27 98 ft / 30 m 7,095 ft / 2,163 m 284.98° 275.56° Asphalt 200 ft / 61 m 400 ft / 122 m

Approach Navaids

Runway Type Ident Frequency Range Bearing (true) Bearing (mag) Slope Elevation
09 Localiser ITEX 109.30 MHz 18 nm / 33 km 102.00° 92.58° - 9,078 ft / 2,767 m (AMSL)
09 DME ITEX 109.30 MHz 18 nm / 33 km - - - 9,078 ft / 2,767 m (AMSL)